sensor_id;sensor_type;location;lat;lon;timestamp;P1;durP1;ratioP1;P2;durP2;ratioP2
6977;SDS011;3529;53.244;10.414;2023-07-29T00:00:46;1.55;;;1.45;;
6977;SDS011;3529;53.244;10.414;2023-07-29T00:03:12;1.52;;;1.52;;
6977;SDS011;3529;53.244;10.414;2023-07-29T00:05:38;1.85;;;1.63;;
6977;SDS011;3529;53.244;10.414;2023-07-29T00:08:05;1.90;;;1.77;;
6977;SDS011;3529;53.244;10.414;2023-07-29T00:10:31;2.10;;;2.00;;
6977;SDS011;3529;53.244;10.414;2023-07-29T00:12:58;1.70;;;1.60;;
6977;SDS011;3529;53.244;10.414;2023-07-29T00:15:24;1.50;;;1.48;;
6977;SDS011;3529;53.244;10.414;2023-07-29T00:17:50;2.58;;;2.38;;
6977;SDS011;3529;53.244;10.414;2023-07-29T00:20:16;1.40;;;1.40;;
6977;SDS011;3529;53.244;10.414;2023-07-29T00:22:42;1.92;;;1.83;;
6977;SDS011;3529;53.244;10.414;2023-07-29T00:25:08;1.52;;;1.48;;
6977;SDS011;3529;53.244;10.414;2023-07-29T00:27:34;1.40;;;1.40;;
6977;SDS011;3529;53.244;10.414;2023-07-29T00:30:00;1.75;;;1.48;;
6977;SDS011;3529;53.244;10.414;2023-07-29T00:32:29;1.67;;;1.58;;
6977;SDS011;3529;53.244;10.414;2023-07-29T00:34:56;1.20;;;1.20;;
6977;SDS011;3529;53.244;10.414;2023-07-29T00:37:22;1.20;;;1.20;;
6977;SDS011;3529;53.244;10.414;2023-07-29T00:39:48;1.55;;;1.45;;
6977;SDS011;3529;53.244;10.414;2023-07-29T00:42:14;1.52;;;1.52;;
6977;SDS011;3529;53.244;10.414;2023-07-29T00:44:40;1.35;;;1.35;;
6977;SDS011;3529;53.244;10.414;2023-07-29T00:47:06;1.92;;;1.83;;
6977;SDS011;3529;53.244;10.414;2023-07-29T00:49:32;1.67;;;1.58;;
6977;SDS011;3529;53.244;10.414;2023-07-29T00:51:59;2.03;;;1.92;;
6977;SDS011;3529;53.244;10.414;2023-07-29T00:54:25;2.30;;;2.15;;
6977;SDS011;3529;53.244;10.414;2023-07-29T00:56:51;1.48;;;1.48;;
6977;SDS011;3529;53.244;10.414;2023-07-29T00:59:17;1.73;;;1.63;;
6977;SDS011;3529;53.244;10.414;2023-07-29T01:01:43;1.92;;;1.83;;
6977;SDS011;3529;53.244;10.414;2023-07-29T01:04:09;1.23;;;1.23;;
6977;SDS011;3529;53.244;10.414;2023-07-29T01:09:17;1.70;;;1.48;;
6977;SDS011;3529;53.244;10.414;2023-07-29T01:11:53;1.75;;;1.65;;
6977;SDS011;3529;53.244;10.414;2023-07-29T01:16:53;1.85;;;1.75;;
6977;SDS011;3529;53.244;10.414;2023-07-29T01:22:06;1.40;;;1.40;;
6977;SDS011;3529;53.244;10.414;2023-07-29T01:24:33;2.08;;;1.98;;
6977;SDS011;3529;53.244;10.414;2023-07-29T01:26:59;1.30;;;1.30;;
6977;SDS011;3529;53.244;10.414;2023-07-29T01:29:26;2.08;;;1.98;;
6977;SDS011;3529;53.244;10.414;2023-07-29T01:31:54;1.25;;;1.25;;
6977;SDS011;3529;53.244;10.414;2023-07-29T01:34:56;1.67;;;1.58;;
6977;SDS011;3529;53.244;10.414;2023-07-29T01:37:15;1.85;;;1.75;;
6977;SDS011;3529;53.244;10.414;2023-07-29T01:39:43;1.40;;;1.40;;
6977;SDS011;3529;53.244;10.414;2023-07-29T01:42:11;1.60;;;1.50;;
6977;SDS011;3529;53.244;10.414;2023-07-29T01:44:37;1.20;;;1.20;;
6977;SDS011;3529;53.244;10.414;2023-07-29T01:47:03;2.38;;;1.55;;
6977;SDS011;3529;53.244;10.414;2023-07-29T01:49:29;2.30;;;2.10;;
6977;SDS011;3529;53.244;10.414;2023-07-29T01:51:55;1.52;;;1.52;;
6977;SDS011;3529;53.244;10.414;2023-07-29T01:54:21;1.20;;;1.20;;
6977;SDS011;3529;53.244;10.414;2023-07-29T01:56:47;1.48;;;1.48;;
6977;SDS011;3529;53.244;10.414;2023-07-29T01:59:16;2.00;;;1.90;;
6977;SDS011;3529;53.244;10.414;2023-07-29T02:01:42;1.83;;;1.73;;
6977;SDS011;3529;53.244;10.414;2023-07-29T02:04:08;1.90;;;1.80;;
6977;SDS011;3529;53.244;10.414;2023-07-29T02:06:34;1.60;;;1.50;;
6977;SDS011;3529;53.244;10.414;2023-07-29T02:09:00;1.25;;;1.25;;
6977;SDS011;3529;53.244;10.414;2023-07-29T02:11:26;1.30;;;1.30;;
6977;SDS011;3529;53.244;10.414;2023-07-29T02:13:53;2.00;;;1.90;;
6977;SDS011;3529;53.244;10.414;2023-07-29T02:16:20;1.70;;;1.60;;
6977;SDS011;3529;53.244;10.414;2023-07-29T02:18:45;1.73;;;1.63;;
6977;SDS011;3529;53.244;10.414;2023-07-29T02:21:11;1.65;;;1.55;;
6977;SDS011;3529;53.244;10.414;2023-07-29T02:23:37;1.88;;;1.73;;
6977;SDS011;3529;53.244;10.414;2023-07-29T02:26:04;1.58;;;1.50;;
6977;SDS011;3529;53.244;10.414;2023-07-29T02:28:31;2.35;;;2.25;;
6977;SDS011;3529;53.244;10.414;2023-07-29T02:33:55;1.48;;;1.38;;
6977;SDS011;3529;53.244;10.414;2023-07-29T02:36:21;1.30;;;1.30;;
6977;SDS011;3529;53.244;10.414;2023-07-29T02:38:47;1.30;;;1.30;;
6977;SDS011;3529;53.244;10.414;2023-07-29T02:41:13;1.98;;;1.88;;
6977;SDS011;3529;53.244;10.414;2023-07-29T02:43:41;1.88;;;1.77;;
6977;SDS011;3529;53.244;10.414;2023-07-29T02:46:07;1.70;;;1.60;;
6977;SDS011;3529;53.244;10.414;2023-07-29T02:48:33;1.85;;;1.75;;
6977;SDS011;3529;53.244;10.414;2023-07-29T02:50:59;2.03;;;1.85;;
6977;SDS011;3529;53.244;10.414;2023-07-29T02:53:25;1.63;;;1.55;;
6977;SDS011;3529;53.244;10.414;2023-07-29T02:55:51;2.75;;;2.55;;
6977;SDS011;3529;53.244;10.414;2023-07-29T02:58:17;1.77;;;1.67;;
6977;SDS011;3529;53.244;10.414;2023-07-29T03:00:43;1.58;;;1.52;;
6977;SDS011;3529;53.244;10.414;2023-07-29T03:03:09;1.30;;;1.30;;
6977;SDS011;3529;53.244;10.414;2023-07-29T03:05:35;1.83;;;1.73;;
6977;SDS011;3529;53.244;10.414;2023-07-29T03:08:03;1.70;;;1.60;;
6977;SDS011;3529;53.244;10.414;2023-07-29T03:10:29;1.77;;;1.67;;
6977;SDS011;3529;53.244;10.414;2023-07-29T03:12:55;1.75;;;1.65;;
6977;SDS011;3529;53.244;10.414;2023-07-29T03:15:24;2.05;;;1.95;;
6977;SDS011;3529;53.244;10.414;2023-07-29T03:17:50;1.88;;;1.77;;
6977;SDS011;3529;53.244;10.414;2023-07-29T03:20:16;1.40;;;1.40;;
6977;SDS011;3529;53.244;10.414;2023-07-29T03:22:43;1.65;;;1.55;;
6977;SDS011;3529;53.244;10.414;2023-07-29T03:25:09;2.33;;;2.13;;
6977;SDS011;3529;53.244;10.414;2023-07-29T03:27:35;1.50;;;1.50;;
6977;SDS011;3529;53.244;10.414;2023-07-29T03:30:05;2.13;;;2.03;;
6977;SDS011;3529;53.244;10.414;2023-07-29T03:32:32;2.08;;;1.98;;
6977;SDS011;3529;53.244;10.414;2023-07-29T03:34:58;2.03;;;1.92;;
6977;SDS011;3529;53.244;10.414;2023-07-29T03:37:24;1.60;;;1.60;;
6977;SDS011;3529;53.244;10.414;2023-07-29T03:39:50;2.00;;;1.90;;
6977;SDS011;3529;53.244;10.414;2023-07-29T03:42:17;2.80;;;2.60;;
6977;SDS011;3529;53.244;10.414;2023-07-29T03:44:43;2.00;;;1.90;;
6977;SDS011;3529;53.244;10.414;2023-07-29T03:47:09;1.80;;;1.70;;
6977;SDS011;3529;53.244;10.414;2023-07-29T03:49:35;1.98;;;1.88;;
6977;SDS011;3529;53.244;10.414;2023-07-29T03:52:01;2.50;;;1.75;;
6977;SDS011;3529;53.244;10.414;2023-07-29T03:54:27;1.80;;;1.70;;
6977;SDS011;3529;53.244;10.414;2023-07-29T03:56:53;1.55;;;1.52;;
6977;SDS011;3529;53.244;10.414;2023-07-29T03:59:19;1.85;;;1.75;;
6977;SDS011;3529;53.244;10.414;2023-07-29T04:01:47;2.95;;;2.03;;
6977;SDS011;3529;53.244;10.414;2023-07-29T04:04:13;2.08;;;1.98;;
6977;SDS011;3529;53.244;10.414;2023-07-29T04:06:39;2.50;;;2.30;;
6977;SDS011;3529;53.244;10.414;2023-07-29T04:09:05;2.28;;;2.17;;
6977;SDS011;3529;53.244;10.414;2023-07-29T04:11:33;2.03;;;1.92;;
6977;SDS011;3529;53.244;10.414;2023-07-29T04:13:59;2.85;;;2.63;;
6977;SDS011;3529;53.244;10.414;2023-07-29T04:16:25;2.28;;;2.17;;
6977;SDS011;3529;53.244;10.414;2023-07-29T04:18:51;2.30;;;2.20;;
6977;SDS011;3529;53.244;10.414;2023-07-29T04:21:17;1.40;;;1.40;;
6977;SDS011;3529;53.244;10.414;2023-07-29T04:23:43;2.05;;;1.95;;
6977;SDS011;3529;53.244;10.414;2023-07-29T04:26:09;1.45;;;1.40;;
6977;SDS011;3529;53.244;10.414;2023-07-29T04:28:35;1.63;;;1.50;;
6977;SDS011;3529;53.244;10.414;2023-07-29T04:31:01;1.40;;;1.40;;
6977;SDS011;3529;53.244;10.414;2023-07-29T04:35:54;1.63;;;1.55;;
6977;SDS011;3529;53.244;10.414;2023-07-29T04:38:20;2.10;;;2.00;;
6977;SDS011;3529;53.244;10.414;2023-07-29T04:40:48;1.90;;;1.83;;
6977;SDS011;3529;53.244;10.414;2023-07-29T04:43:14;2.20;;;2.10;;
6977;SDS011;3529;53.244;10.414;2023-07-29T04:45:43;2.58;;;2.47;;
6977;SDS011;3529;53.244;10.414;2023-07-29T04:48:10;1.83;;;1.73;;
6977;SDS011;3529;53.244;10.414;2023-07-29T04:50:36;2.10;;;2.00;;
6977;SDS011;3529;53.244;10.414;2023-07-29T04:53:02;1.88;;;1.77;;
6977;SDS011;3529;53.244;10.414;2023-07-29T04:55:28;1.60;;;1.50;;
6977;SDS011;3529;53.244;10.414;2023-07-29T04:57:54;1.42;;;1.33;;
6977;SDS011;3529;53.244;10.414;2023-07-29T05:00:20;1.88;;;1.77;;
6977;SDS011;3529;53.244;10.414;2023-07-29T05:02:46;1.60;;;1.50;;
6977;SDS011;3529;53.244;10.414;2023-07-29T05:05:12;1.90;;;1.80;;
6977;SDS011;3529;53.244;10.414;2023-07-29T05:07:38;2.97;;;1.77;;
6977;SDS011;3529;53.244;10.414;2023-07-29T05:10:04;1.48;;;1.48;;
6977;SDS011;3529;53.244;10.414;2023-07-29T05:12:30;1.80;;;1.70;;
6977;SDS011;3529;53.244;10.414;2023-07-29T05:14:57;1.60;;;1.50;;
6977;SDS011;3529;53.244;10.414;2023-07-29T05:17:23;1.85;;;1.75;;
6977;SDS011;3529;53.244;10.414;2023-07-29T05:19:49;2.13;;;2.03;;
6977;SDS011;3529;53.244;10.414;2023-07-29T05:22:15;2.33;;;2.22;;
6977;SDS011;3529;53.244;10.414;2023-07-29T05:24:41;2.10;;;1.98;;
6977;SDS011;3529;53.244;10.414;2023-07-29T05:27:07;2.00;;;1.90;;
6977;SDS011;3529;53.244;10.414;2023-07-29T05:29:33;1.98;;;1.85;;
6977;SDS011;3529;53.244;10.414;2023-07-29T05:31:59;1.70;;;1.60;;
6977;SDS011;3529;53.244;10.414;2023-07-29T05:34:26;2.83;;;2.63;;
6977;SDS011;3529;53.244;10.414;2023-07-29T05:36:52;2.25;;;2.05;;
6977;SDS011;3529;53.244;10.414;2023-07-29T05:39:18;2.72;;;2.53;;
6977;SDS011;3529;53.244;10.414;2023-07-29T05:41:44;1.60;;;1.50;;
6977;SDS011;3529;53.244;10.414;2023-07-29T05:44:10;2.22;;;2.10;;
6977;SDS011;3529;53.244;10.414;2023-07-29T05:46:36;1.50;;;1.50;;
6977;SDS011;3529;53.244;10.414;2023-07-29T05:49:02;2.92;;;2.72;;
6977;SDS011;3529;53.244;10.414;2023-07-29T05:51:28;2.10;;;1.88;;
6977;SDS011;3529;53.244;10.414;2023-07-29T05:53:54;2.40;;;2.25;;
6977;SDS011;3529;53.244;10.414;2023-07-29T05:56:20;1.90;;;1.80;;
6977;SDS011;3529;53.244;10.414;2023-07-29T05:58:46;2.25;;;1.77;;
6977;SDS011;3529;53.244;10.414;2023-07-29T06:01:14;1.80;;;1.70;;
6977;SDS011;3529;53.244;10.414;2023-07-29T06:03:40;1.75;;;1.65;;
6977;SDS011;3529;53.244;10.414;2023-07-29T06:06:06;1.63;;;1.52;;
6977;SDS011;3529;53.244;10.414;2023-07-29T06:08:32;2.35;;;1.80;;
6977;SDS011;3529;53.244;10.414;2023-07-29T06:10:59;2.38;;;2.17;;
6977;SDS011;3529;53.244;10.414;2023-07-29T06:13:25;1.88;;;1.77;;
6977;SDS011;3529;53.244;10.414;2023-07-29T06:15:51;2.10;;;2.00;;
6977;SDS011;3529;53.244;10.414;2023-07-29T06:18:17;2.55;;;2.35;;
6977;SDS011;3529;53.244;10.414;2023-07-29T06:20:43;2.88;;;1.92;;
6977;SDS011;3529;53.244;10.414;2023-07-29T06:23:09;3.67;;;2.25;;
6977;SDS011;3529;53.244;10.414;2023-07-29T06:25:35;2.75;;;2.03;;
6977;SDS011;3529;53.244;10.414;2023-07-29T06:28:01;2.33;;;2.22;;
6977;SDS011;3529;53.244;10.414;2023-07-29T06:30:27;2.15;;;1.90;;
6977;SDS011;3529;53.244;10.414;2023-07-29T06:32:53;2.47;;;2.08;;
6977;SDS011;3529;53.244;10.414;2023-07-29T06:35:19;1.58;;;1.48;;
6977;SDS011;3529;53.244;10.414;2023-07-29T06:37:45;1.77;;;1.67;;
6977;SDS011;3529;53.244;10.414;2023-07-29T06:40:11;1.80;;;1.70;;
6977;SDS011;3529;53.244;10.414;2023-07-29T06:42:37;1.73;;;1.63;;
6977;SDS011;3529;53.244;10.414;2023-07-29T06:45:04;2.22;;;1.90;;
6977;SDS011;3529;53.244;10.414;2023-07-29T06:47:30;1.73;;;1.63;;
6977;SDS011;3529;53.244;10.414;2023-07-29T06:49:56;2.15;;;2.05;;
6977;SDS011;3529;53.244;10.414;2023-07-29T06:52:22;1.75;;;1.65;;
6977;SDS011;3529;53.244;10.414;2023-07-29T06:54:48;1.60;;;1.50;;
6977;SDS011;3529;53.244;10.414;2023-07-29T06:57:14;1.83;;;1.73;;
6977;SDS011;3529;53.244;10.414;2023-07-29T06:59:40;2.00;;;1.90;;
6977;SDS011;3529;53.244;10.414;2023-07-29T07:02:06;1.88;;;1.77;;
6977;SDS011;3529;53.244;10.414;2023-07-29T07:04:33;1.20;;;1.20;;
6977;SDS011;3529;53.244;10.414;2023-07-29T07:06:59;1.77;;;1.67;;
6977;SDS011;3529;53.244;10.414;2023-07-29T07:09:25;1.55;;;1.45;;
6977;SDS011;3529;53.244;10.414;2023-07-29T07:11:51;1.30;;;1.30;;
6977;SDS011;3529;53.244;10.414;2023-07-29T07:14:17;1.52;;;1.42;;
6977;SDS011;3529;53.244;10.414;2023-07-29T07:16:43;1.23;;;1.23;;
6977;SDS011;3529;53.244;10.414;2023-07-29T07:19:10;1.17;;;1.17;;
6977;SDS011;3529;53.244;10.414;2023-07-29T07:21:36;1.42;;;1.33;;
6977;SDS011;3529;53.244;10.414;2023-07-29T07:24:02;1.63;;;1.52;;
6977;SDS011;3529;53.244;10.414;2023-07-29T07:26:28;1.23;;;1.17;;
6977;SDS011;3529;53.244;10.414;2023-07-29T07:28:54;1.05;;;1.05;;
6977;SDS011;3529;53.244;10.414;2023-07-29T07:31:21;0.90;;;0.90;;
6977;SDS011;3529;53.244;10.414;2023-07-29T07:33:47;1.10;;;1.10;;
6977;SDS011;3529;53.244;10.414;2023-07-29T07:36:14;1.10;;;1.10;;
6977;SDS011;3529;53.244;10.414;2023-07-29T07:38:40;1.00;;;1.00;;
6977;SDS011;3529;53.244;10.414;2023-07-29T07:41:06;1.50;;;1.42;;
6977;SDS011;3529;53.244;10.414;2023-07-29T07:43:32;1.15;;;1.15;;
6977;SDS011;3529;53.244;10.414;2023-07-29T07:46:00;0.95;;;0.95;;
6977;SDS011;3529;53.244;10.414;2023-07-29T07:48:26;1.48;;;1.30;;
6977;SDS011;3529;53.244;10.414;2023-07-29T07:50:52;1.15;;;1.15;;
6977;SDS011;3529;53.244;10.414;2023-07-29T07:53:18;1.23;;;1.23;;
6977;SDS011;3529;53.244;10.414;2023-07-29T07:55:47;1.63;;;1.52;;
6977;SDS011;3529;53.244;10.414;2023-07-29T07:58:13;1.48;;;1.42;;
6977;SDS011;3529;53.244;10.414;2023-07-29T08:00:39;1.48;;;1.38;;
6977;SDS011;3529;53.244;10.414;2023-07-29T08:03:05;1.20;;;1.20;;
6977;SDS011;3529;53.244;10.414;2023-07-29T08:05:31;1.33;;;1.33;;
6977;SDS011;3529;53.244;10.414;2023-07-29T08:07:57;1.10;;;1.10;;
6977;SDS011;3529;53.244;10.414;2023-07-29T08:10:23;1.10;;;1.10;;
6977;SDS011;3529;53.244;10.414;2023-07-29T08:12:49;1.13;;;1.13;;
6977;SDS011;3529;53.244;10.414;2023-07-29T08:15:15;1.35;;;1.35;;
6977;SDS011;3529;53.244;10.414;2023-07-29T08:17:41;1.88;;;1.77;;
6977;SDS011;3529;53.244;10.414;2023-07-29T08:20:07;1.85;;;1.73;;
6977;SDS011;3529;53.244;10.414;2023-07-29T08:22:34;1.13;;;1.13;;
6977;SDS011;3529;53.244;10.414;2023-07-29T08:25:00;2.13;;;1.67;;
6977;SDS011;3529;53.244;10.414;2023-07-29T08:27:26;1.38;;;1.27;;
6977;SDS011;3529;53.244;10.414;2023-07-29T08:29:53;1.20;;;1.20;;
6977;SDS011;3529;53.244;10.414;2023-07-29T08:32:19;1.30;;;1.30;;
6977;SDS011;3529;53.244;10.414;2023-07-29T08:34:45;1.02;;;1.02;;
6977;SDS011;3529;53.244;10.414;2023-07-29T08:37:11;1.50;;;1.45;;
6977;SDS011;3529;53.244;10.414;2023-07-29T08:39:38;1.00;;;1.00;;
6977;SDS011;3529;53.244;10.414;2023-07-29T08:42:04;1.75;;;1.65;;
6977;SDS011;3529;53.244;10.414;2023-07-29T08:44:41;1.13;;;1.13;;
6977;SDS011;3529;53.244;10.414;2023-07-29T08:47:07;1.63;;;1.52;;
6977;SDS011;3529;53.244;10.414;2023-07-29T08:49:33;1.90;;;1.75;;
6977;SDS011;3529;53.244;10.414;2023-07-29T08:51:59;1.70;;;1.60;;
6977;SDS011;3529;53.244;10.414;2023-07-29T08:54:26;1.70;;;1.60;;
6977;SDS011;3529;53.244;10.414;2023-07-29T08:56:53;1.65;;;1.55;;
6977;SDS011;3529;53.244;10.414;2023-07-29T08:59:19;1.25;;;1.25;;
6977;SDS011;3529;53.244;10.414;2023-07-29T09:01:46;1.50;;;1.40;;
6977;SDS011;3529;53.244;10.414;2023-07-29T09:04:12;2.10;;;1.98;;
6977;SDS011;3529;53.244;10.414;2023-07-29T09:06:39;1.60;;;1.50;;
6977;SDS011;3529;53.244;10.414;2023-07-29T09:09:05;1.85;;;1.75;;
6977;SDS011;3529;53.244;10.414;2023-07-29T09:11:33;1.63;;;1.52;;
6977;SDS011;3529;53.244;10.414;2023-07-29T09:13:59;2.58;;;2.47;;
6977;SDS011;3529;53.244;10.414;2023-07-29T09:16:25;1.40;;;1.30;;
6977;SDS011;3529;53.244;10.414;2023-07-29T09:18:51;1.60;;;1.50;;
6977;SDS011;3529;53.244;10.414;2023-07-29T09:21:18;2.45;;;2.25;;
6977;SDS011;3529;53.244;10.414;2023-07-29T09:23:48;2.22;;;2.03;;
6977;SDS011;3529;53.244;10.414;2023-07-29T09:26:22;3.03;;;1.88;;
6977;SDS011;3529;53.244;10.414;2023-07-29T09:28:51;1.85;;;1.75;;
6977;SDS011;3529;53.244;10.414;2023-07-29T09:31:21;2.10;;;2.00;;
6977;SDS011;3529;53.244;10.414;2023-07-29T09:33:47;1.80;;;1.70;;
6977;SDS011;3529;53.244;10.414;2023-07-29T09:36:13;1.55;;;1.45;;
6977;SDS011;3529;53.244;10.414;2023-07-29T09:38:39;1.27;;;1.27;;
6977;SDS011;3529;53.244;10.414;2023-07-29T09:41:05;2.05;;;1.90;;
6977;SDS011;3529;53.244;10.414;2023-07-29T09:43:33;3.92;;;1.90;;
6977;SDS011;3529;53.244;10.414;2023-07-29T09:46:03;1.58;;;1.48;;
6977;SDS011;3529;53.244;10.414;2023-07-29T09:48:33;1.45;;;1.35;;
6977;SDS011;3529;53.244;10.414;2023-07-29T09:50:59;1.50;;;1.40;;
6977;SDS011;3529;53.244;10.414;2023-07-29T09:53:25;1.35;;;1.35;;
6977;SDS011;3529;53.244;10.414;2023-07-29T09:55:52;1.73;;;1.63;;
6977;SDS011;3529;53.244;10.414;2023-07-29T09:58:28;1.63;;;1.52;;
6977;SDS011;3529;53.244;10.414;2023-07-29T10:00:54;2.03;;;1.92;;
6977;SDS011;3529;53.244;10.414;2023-07-29T10:03:20;1.35;;;1.35;;
6977;SDS011;3529;53.244;10.414;2023-07-29T10:05:47;2.17;;;2.00;;
6977;SDS011;3529;53.244;10.414;2023-07-29T10:08:13;2.10;;;1.90;;
6977;SDS011;3529;53.244;10.414;2023-07-29T10:10:42;1.60;;;1.58;;
6977;SDS011;3529;53.244;10.414;2023-07-29T10:13:09;1.85;;;1.75;;
6977;SDS011;3529;53.244;10.414;2023-07-29T10:15:35;1.73;;;1.65;;
6977;SDS011;3529;53.244;10.414;2023-07-29T10:18:01;1.90;;;1.77;;
6977;SDS011;3529;53.244;10.414;2023-07-29T10:20:29;1.30;;;1.30;;
6977;SDS011;3529;53.244;10.414;2023-07-29T10:22:56;2.75;;;2.00;;
6977;SDS011;3529;53.244;10.414;2023-07-29T10:25:25;1.80;;;1.70;;
6977;SDS011;3529;53.244;10.414;2023-07-29T10:28:04;2.17;;;2.08;;
6977;SDS011;3529;53.244;10.414;2023-07-29T10:30:30;1.70;;;1.60;;
6977;SDS011;3529;53.244;10.414;2023-07-29T10:33:03;2.35;;;2.25;;
6977;SDS011;3529;53.244;10.414;2023-07-29T10:35:30;2.13;;;2.03;;
6977;SDS011;3529;53.244;10.414;2023-07-29T10:37:58;2.33;;;2.13;;
6977;SDS011;3529;53.244;10.414;2023-07-29T10:40:24;1.52;;;1.42;;
6977;SDS011;3529;53.244;10.414;2023-07-29T10:43:10;1.75;;;1.65;;
6977;SDS011;3529;53.244;10.414;2023-07-29T10:45:37;2.28;;;2.08;;
6977;SDS011;3529;53.244;10.414;2023-07-29T10:48:13;2.33;;;2.17;;
6977;SDS011;3529;53.244;10.414;2023-07-29T10:50:39;5.10;;;2.33;;
6977;SDS011;3529;53.244;10.414;2023-07-29T10:53:05;1.95;;;1.85;;
6977;SDS011;3529;53.244;10.414;2023-07-29T10:55:32;1.77;;;1.67;;
6977;SDS011;3529;53.244;10.414;2023-07-29T10:58:08;4.57;;;2.78;;
6977;SDS011;3529;53.244;10.414;2023-07-29T11:00:34;2.10;;;2.00;;
6977;SDS011;3529;53.244;10.414;2023-07-29T11:03:10;2.65;;;2.40;;
6977;SDS011;3529;53.244;10.414;2023-07-29T11:05:47;1.63;;;1.52;;
6977;SDS011;3529;53.244;10.414;2023-07-29T11:08:17;2.17;;;2.00;;
6977;SDS011;3529;53.244;10.414;2023-07-29T11:10:44;1.77;;;1.65;;
6977;SDS011;3529;53.244;10.414;2023-07-29T11:13:22;2.53;;;2.33;;
6977;SDS011;3529;53.244;10.414;2023-07-29T11:15:48;2.40;;;2.20;;
6977;SDS011;3529;53.244;10.414;2023-07-29T11:18:16;3.75;;;2.10;;
6977;SDS011;3529;53.244;10.414;2023-07-29T11:20:42;2.05;;;1.85;;
6977;SDS011;3529;53.244;10.414;2023-07-29T11:23:10;3.53;;;2.17;;
6977;SDS011;3529;53.244;10.414;2023-07-29T11:25:36;2.05;;;1.95;;
6977;SDS011;3529;53.244;10.414;2023-07-29T11:28:03;1.95;;;1.85;;
6977;SDS011;3529;53.244;10.414;2023-07-29T11:30:29;2.83;;;2.35;;
6977;SDS011;3529;53.244;10.414;2023-07-29T11:32:56;2.78;;;2.38;;
6977;SDS011;3529;53.244;10.414;2023-07-29T11:35:22;4.57;;;2.33;;
6977;SDS011;3529;53.244;10.414;2023-07-29T11:37:49;1.92;;;1.83;;
6977;SDS011;3529;53.244;10.414;2023-07-29T11:40:16;2.15;;;1.83;;
6977;SDS011;3529;53.244;10.414;2023-07-29T11:42:42;2.03;;;1.90;;
6977;SDS011;3529;53.244;10.414;2023-07-29T11:45:08;2.08;;;1.98;;
6977;SDS011;3529;53.244;10.414;2023-07-29T11:47:35;2.45;;;2.25;;
6977;SDS011;3529;53.244;10.414;2023-07-29T11:50:02;5.78;;;2.70;;
6977;SDS011;3529;53.244;10.414;2023-07-29T11:52:29;3.05;;;2.67;;
6977;SDS011;3529;53.244;10.414;2023-07-29T11:54:56;2.03;;;1.73;;
6977;SDS011;3529;53.244;10.414;2023-07-29T11:57:23;1.55;;;1.45;;
6977;SDS011;3529;53.244;10.414;2023-07-29T11:59:49;2.05;;;1.85;;
6977;SDS011;3529;53.244;10.414;2023-07-29T12:02:16;1.88;;;1.77;;
6977;SDS011;3529;53.244;10.414;2023-07-29T12:04:43;2.10;;;1.90;;
6977;SDS011;3529;53.244;10.414;2023-07-29T12:07:10;1.52;;;1.42;;
6977;SDS011;3529;53.244;10.414;2023-07-29T12:09:36;1.85;;;1.75;;
6977;SDS011;3529;53.244;10.414;2023-07-29T12:12:03;2.15;;;1.63;;
6977;SDS011;3529;53.244;10.414;2023-07-29T12:14:29;1.65;;;1.55;;
6977;SDS011;3529;53.244;10.414;2023-07-29T12:16:55;2.00;;;1.60;;
6977;SDS011;3529;53.244;10.414;2023-07-29T12:19:21;1.20;;;1.20;;
6977;SDS011;3529;53.244;10.414;2023-07-29T12:21:47;1.50;;;1.40;;
6977;SDS011;3529;53.244;10.414;2023-07-29T12:24:14;2.05;;;1.92;;
6977;SDS011;3529;53.244;10.414;2023-07-29T12:26:40;2.10;;;2.00;;
6977;SDS011;3529;53.244;10.414;2023-07-29T12:29:13;0.93;;;0.93;;
6977;SDS011;3529;53.244;10.414;2023-07-29T12:31:40;1.35;;;1.25;;
6977;SDS011;3529;53.244;10.414;2023-07-29T12:34:07;1.10;;;1.10;;
6977;SDS011;3529;53.244;10.414;2023-07-29T12:36:42;1.52;;;1.42;;
6977;SDS011;3529;53.244;10.414;2023-07-29T12:39:42;1.95;;;1.50;;
6977;SDS011;3529;53.244;10.414;2023-07-29T12:42:02;1.60;;;1.50;;
6977;SDS011;3529;53.244;10.414;2023-07-29T12:44:30;1.23;;;1.13;;
6977;SDS011;3529;53.244;10.414;2023-07-29T12:46:56;1.08;;;1.08;;
6977;SDS011;3529;53.244;10.414;2023-07-29T12:49:22;1.17;;;1.17;;
6977;SDS011;3529;53.244;10.414;2023-07-29T12:51:48;1.50;;;1.40;;
6977;SDS011;3529;53.244;10.414;2023-07-29T12:54:14;1.70;;;1.60;;
6977;SDS011;3529;53.244;10.414;2023-07-29T12:56:40;1.42;;;1.35;;
6977;SDS011;3529;53.244;10.414;2023-07-29T12:59:06;1.23;;;1.13;;
6977;SDS011;3529;53.244;10.414;2023-07-29T13:01:32;1.30;;;1.27;;
6977;SDS011;3529;53.244;10.414;2023-07-29T13:03:58;1.70;;;1.60;;
6977;SDS011;3529;53.244;10.414;2023-07-29T13:06:24;1.10;;;1.10;;
6977;SDS011;3529;53.244;10.414;2023-07-29T13:08:50;0.95;;;0.95;;
6977;SDS011;3529;53.244;10.414;2023-07-29T13:11:16;1.52;;;1.42;;
6977;SDS011;3529;53.244;10.414;2023-07-29T13:13:43;1.27;;;1.27;;
6977;SDS011;3529;53.244;10.414;2023-07-29T13:16:10;1.20;;;1.20;;
6977;SDS011;3529;53.244;10.414;2023-07-29T13:18:36;1.30;;;1.20;;
6977;SDS011;3529;53.244;10.414;2023-07-29T13:21:02;0.90;;;0.90;;
6977;SDS011;3529;53.244;10.414;2023-07-29T13:23:28;1.30;;;1.20;;
6977;SDS011;3529;53.244;10.414;2023-07-29T13:25:55;1.42;;;1.35;;
6977;SDS011;3529;53.244;10.414;2023-07-29T13:28:21;1.27;;;1.17;;
6977;SDS011;3529;53.244;10.414;2023-07-29T13:30:48;1.30;;;1.20;;
6977;SDS011;3529;53.244;10.414;2023-07-29T13:33:14;1.23;;;1.23;;
6977;SDS011;3529;53.244;10.414;2023-07-29T13:35:40;0.80;;;0.80;;
6977;SDS011;3529;53.244;10.414;2023-07-29T13:38:06;0.90;;;0.90;;
6977;SDS011;3529;53.244;10.414;2023-07-29T13:40:32;1.00;;;1.00;;
6977;SDS011;3529;53.244;10.414;2023-07-29T13:42:58;1.05;;;1.05;;
6977;SDS011;3529;53.244;10.414;2023-07-29T13:45:24;1.42;;;1.33;;
6977;SDS011;3529;53.244;10.414;2023-07-29T13:47:50;0.80;;;0.80;;
6977;SDS011;3529;53.244;10.414;2023-07-29T13:50:16;0.85;;;0.85;;
6977;SDS011;3529;53.244;10.414;2023-07-29T13:52:43;0.90;;;0.90;;
6977;SDS011;3529;53.244;10.414;2023-07-29T13:55:09;1.23;;;1.23;;
6977;SDS011;3529;53.244;10.414;2023-07-29T13:57:36;0.95;;;0.95;;
6977;SDS011;3529;53.244;10.414;2023-07-29T14:00:03;0.77;;;0.77;;
6977;SDS011;3529;53.244;10.414;2023-07-29T14:02:30;0.80;;;0.80;;
6977;SDS011;3529;53.244;10.414;2023-07-29T14:04:56;0.93;;;0.93;;
6977;SDS011;3529;53.244;10.414;2023-07-29T14:07:22;0.82;;;0.82;;
6977;SDS011;3529;53.244;10.414;2023-07-29T14:09:48;1.20;;;1.15;;
6977;SDS011;3529;53.244;10.414;2023-07-29T14:12:14;1.30;;;1.20;;
6977;SDS011;3529;53.244;10.414;2023-07-29T14:14:43;0.98;;;0.93;;
6977;SDS011;3529;53.244;10.414;2023-07-29T14:17:09;1.00;;;1.00;;
6977;SDS011;3529;53.244;10.414;2023-07-29T14:19:36;1.02;;;1.02;;
6977;SDS011;3529;53.244;10.414;2023-07-29T14:22:01;1.05;;;0.82;;
6977;SDS011;3529;53.244;10.414;2023-07-29T14:24:28;1.45;;;1.35;;
6977;SDS011;3529;53.244;10.414;2023-07-29T14:26:54;1.30;;;1.20;;
6977;SDS011;3529;53.244;10.414;2023-07-29T14:29:20;0.88;;;0.88;;
6977;SDS011;3529;53.244;10.414;2023-07-29T14:31:45;0.82;;;0.82;;
6977;SDS011;3529;53.244;10.414;2023-07-29T14:34:12;1.10;;;1.00;;
6977;SDS011;3529;53.244;10.414;2023-07-29T14:36:37;1.20;;;1.20;;
6977;SDS011;3529;53.244;10.414;2023-07-29T14:39:03;1.00;;;1.00;;
6977;SDS011;3529;53.244;10.414;2023-07-29T14:41:30;1.10;;;1.10;;
6977;SDS011;3529;53.244;10.414;2023-07-29T14:43:56;0.70;;;0.70;;
6977;SDS011;3529;53.244;10.414;2023-07-29T14:46:22;1.00;;;1.00;;
6977;SDS011;3529;53.244;10.414;2023-07-29T14:48:48;1.00;;;1.00;;
6977;SDS011;3529;53.244;10.414;2023-07-29T14:51:14;1.23;;;1.23;;
6977;SDS011;3529;53.244;10.414;2023-07-29T14:53:40;0.90;;;0.90;;
6977;SDS011;3529;53.244;10.414;2023-07-29T14:56:06;1.10;;;1.10;;
6977;SDS011;3529;53.244;10.414;2023-07-29T14:58:32;0.93;;;0.93;;
6977;SDS011;3529;53.244;10.414;2023-07-29T15:00:58;0.88;;;0.88;;
6977;SDS011;3529;53.244;10.414;2023-07-29T15:03:24;0.85;;;0.85;;
6977;SDS011;3529;53.244;10.414;2023-07-29T15:05:50;0.73;;;0.73;;
6977;SDS011;3529;53.244;10.414;2023-07-29T15:08:16;0.95;;;0.95;;
6977;SDS011;3529;53.244;10.414;2023-07-29T15:10:46;0.70;;;0.70;;